createdAt,value
2019-05-28T00:03:34.630Z,85.90
2019-05-28T00:08:29.185Z,86.50
2019-05-28T00:13:22.660Z,87.50
2019-05-28T00:18:16.403Z,86.80
2019-05-28T00:23:09.957Z,88.90
2019-05-28T00:28:03.530Z,88.60
2019-05-28T00:33:03.213Z,88.80
2019-05-28T00:37:56.764Z,88.10
2019-05-28T00:42:51.314Z,89.30
2019-05-28T00:47:45.246Z,87.90
2019-05-28T00:52:44.910Z,88.30
2019-05-28T00:57:47.475Z,88.90
2019-05-28T01:02:41.486Z,89.00
2019-05-28T01:07:45.966Z,88.40
2019-05-28T01:12:39.532Z,88.00
2019-05-28T01:17:33.956Z,88.00
2019-05-28T01:22:27.473Z,88.00
2019-05-28T01:27:21.008Z,88.20
2019-05-28T01:32:30.642Z,87.50
2019-05-28T01:37:29.863Z,89.10
2019-05-28T01:42:24.399Z,88.20
2019-05-28T01:47:24.628Z,86.20
2019-05-28T01:52:18.418Z,85.30
2019-05-28T01:57:19.600Z,85.90
2019-05-28T02:02:13.087Z,85.00
2019-05-28T02:07:08.669Z,85.40
2019-05-28T02:12:02.179Z,86.40
2019-05-28T02:16:56.960Z,86.00
2019-05-28T02:21:50.526Z,86.80
2019-05-28T02:26:46.013Z,86.20
2019-05-28T02:31:45.396Z,84.70
2019-05-28T02:36:43.229Z,83.90
2019-05-28T02:41:38.620Z,84.20
2019-05-28T02:46:32.378Z,84.20
2019-05-28T02:51:38.120Z,84.80
2019-05-28T02:56:33.360Z,84.40
2019-05-28T03:01:42.754Z,84.50
2019-05-28T03:06:29.975Z,84.20
2019-05-28T03:11:23.488Z,84.30
2019-05-28T03:16:19.459Z,84.70
2019-05-28T03:21:15.002Z,85.20
2019-05-28T03:26:08.575Z,85.30
2019-05-28T03:31:14.220Z,85.20
2019-05-28T03:36:39.617Z,85.90
2019-05-28T03:41:34.625Z,86.40
2019-05-28T03:46:28.104Z,86.50
2019-05-28T03:51:21.647Z,85.90
2019-05-28T03:56:16.230Z,88.30
2019-05-28T04:01:10.851Z,86.70
2019-05-28T04:06:04.514Z,86.60
2019-05-28T04:11:00.040Z,86.50
2019-05-28T04:15:53.597Z,86.40
2019-05-28T04:20:49.251Z,86.80
2019-05-28T04:25:45.422Z,86.40
2019-05-28T04:30:41.188Z,86.00
2019-05-28T04:35:34.680Z,87.10
2019-05-28T04:40:28.503Z,86.20
2019-05-28T04:45:22.042Z,86.30
2019-05-28T04:50:16.632Z,84.60
2019-05-28T04:55:10.513Z,84.20
2019-05-28T05:00:07.645Z,84.30
2019-05-28T05:05:02.090Z,84.10
2019-05-28T05:09:55.641Z,83.70
2019-05-28T05:14:50.144Z,82.70
2019-05-28T05:19:48.735Z,82.60
2019-05-28T05:24:44.954Z,84.10
2019-05-28T05:29:38.429Z,83.60
2019-05-28T05:34:32.797Z,81.50
2019-05-28T05:39:29.747Z,81.30
2019-05-28T05:44:23.220Z,79.40
2019-05-28T05:49:21.407Z,79.70
2019-05-28T05:54:21.344Z,76.50
2019-05-28T05:59:15.153Z,76.70
2019-05-28T06:04:08.751Z,76.30
2019-05-28T06:09:02.489Z,75.00
2019-05-28T06:14:14.094Z,71.90
2019-05-28T06:19:07.928Z,70.90
2019-05-28T06:24:01.482Z,71.00
2019-05-28T06:28:57.963Z,71.50
2019-05-28T06:33:56.819Z,69.20
2019-05-28T06:38:51.572Z,66.30
2019-05-28T06:43:45.055Z,66.60
2019-05-28T06:48:39.537Z,66.00
2019-05-28T06:53:40.826Z,63.70
2019-05-28T06:58:39.894Z,61.90
2019-05-28T07:03:36.377Z,63.00
2019-05-28T07:08:29.928Z,61.70
2019-05-28T07:13:30.350Z,58.00
2019-05-28T07:18:27.473Z,56.50
2019-05-28T07:23:30.345Z,56.70
2019-05-28T07:28:26.616Z,57.10
2019-05-28T07:33:21.389Z,55.90
2019-05-28T07:38:21.133Z,56.30
2019-05-28T07:43:15.636Z,56.50
2019-05-28T07:48:09.193Z,57.10
2019-05-28T07:53:03.724Z,60.20
2019-05-28T07:57:58.224Z,61.90
2019-05-28T08:02:51.712Z,61.80
2019-05-28T08:07:47.945Z,62.10
2019-05-28T08:12:41.496Z,58.80
2019-05-28T08:17:37.473Z,58.70
2019-05-28T08:22:41.860Z,60.60
2019-05-28T08:27:26.635Z,58.50
2019-05-28T08:32:20.236Z,56.30
2019-05-28T08:37:26.386Z,56.90
2019-05-28T08:42:21.209Z,54.60
2019-05-28T08:47:14.755Z,55.40
2019-05-28T08:52:08.312Z,57.20
2019-05-28T08:57:05.215Z,57.10
2019-05-28T09:02:26.569Z,54.80
2019-05-28T09:07:03.990Z,54.30
2019-05-28T09:12:00.583Z,53.30
2019-05-28T09:16:54.069Z,54.90
2019-05-28T09:21:50.336Z,53.00
2019-05-28T09:26:45.784Z,51.50
2019-05-28T09:31:39.354Z,50.00
2019-05-28T09:36:34.868Z,51.70
2019-05-28T09:41:28.360Z,48.60
2019-05-28T09:46:40.385Z,47.90
2019-05-28T09:51:34.234Z,50.70
2019-05-28T09:56:33.719Z,49.90
2019-05-28T10:01:27.485Z,54.00
2019-05-28T10:06:34.571Z,49.50
2019-05-28T10:11:18.143Z,49.40
2019-05-28T10:16:11.717Z,50.80
2019-05-28T10:21:17.684Z,49.30
2019-05-28T10:26:00.520Z,49.30
2019-05-28T10:30:57.065Z,53.80
2019-05-28T10:35:50.615Z,51.60
2019-05-28T10:40:44.432Z,53.00
2019-05-28T10:45:38.019Z,52.80
2019-05-28T10:50:44.172Z,48.70
2019-05-28T10:55:37.724Z,46.70
2019-05-28T11:00:32.205Z,45.80
2019-05-28T11:05:26.893Z,43.30
2019-05-28T11:10:27.552Z,45.30
2019-05-28T11:15:24.188Z,47.40
2019-05-28T11:20:35.956Z,48.50
2019-05-28T11:25:29.781Z,51.50
2019-05-28T11:30:23.868Z,50.30
2019-05-28T11:35:19.598Z,47.80
2019-05-28T11:40:14.760Z,43.80
2019-05-28T11:45:14.336Z,46.70
2019-05-28T11:50:09.336Z,46.50
2019-05-28T11:55:13.412Z,47.20
2019-05-28T12:00:17.025Z,49.80
2019-05-28T12:05:11.432Z,48.20
2019-05-28T12:10:16.145Z,50.10
2019-05-28T12:15:13.416Z,49.80
2019-05-28T12:20:08.403Z,47.40
2019-05-28T12:25:12.203Z,48.80
2019-05-28T12:30:17.990Z,47.50
2019-05-28T12:35:26.208Z,47.10
2019-05-28T12:40:09.169Z,46.60
2019-05-28T12:45:34.234Z,45.90
2019-05-28T12:50:19.682Z,42.90
2019-05-28T12:55:11.978Z,45.00
2019-05-28T13:00:10.222Z,44.00
2019-05-28T13:05:18.305Z,44.20
2019-05-28T13:10:14.969Z,42.90
2019-05-28T13:15:10.535Z,42.60
2019-05-28T13:20:07.907Z,43.40
2019-05-28T13:25:01.430Z,44.00
2019-05-28T13:29:55.933Z,39.00
2019-05-28T13:34:50.688Z,41.50
2019-05-28T13:39:44.192Z,42.00
2019-05-28T13:44:45.869Z,39.40
2019-05-28T13:49:39.423Z,35.30
2019-05-28T13:54:36.310Z,41.30
2019-05-28T13:59:29.972Z,41.70
2019-05-28T14:04:36.782Z,46.20
2019-05-28T14:09:31.244Z,44.00
2019-05-28T14:14:26.682Z,45.30
2019-05-28T14:19:29.168Z,47.30
2019-05-28T14:24:22.640Z,47.70
2019-05-28T14:29:19.445Z,45.90
2019-05-28T14:34:13.004Z,47.90
2019-05-28T14:39:08.832Z,46.50
2019-05-28T14:44:05.113Z,46.70
2019-05-28T14:48:59.636Z,47.10
2019-05-28T14:53:54.004Z,46.90
2019-05-28T14:58:53.743Z,50.20
2019-05-28T15:03:53.496Z,44.70
2019-05-28T15:08:46.984Z,46.10
2019-05-28T15:13:50.801Z,47.10
2019-05-28T15:18:44.733Z,47.40
2019-05-28T15:23:40.141Z,46.40
2019-05-28T15:28:33.680Z,46.50
2019-05-28T15:33:30.604Z,47.30
2019-05-28T15:38:24.120Z,49.30
2019-05-28T15:43:24.796Z,47.50
2019-05-28T15:48:20.403Z,50.00
2019-05-28T15:53:13.952Z,48.80
2019-05-28T15:58:07.511Z,47.70
2019-05-28T16:03:00.992Z,47.30
2019-05-28T16:07:57.469Z,48.10
2019-05-28T16:12:55.861Z,48.70
2019-05-28T16:17:55.155Z,48.00
2019-05-28T16:22:51.366Z,50.00
2019-05-28T16:27:47.945Z,49.30
2019-05-28T16:32:43.412Z,52.80
2019-05-28T16:37:37.367Z,51.90
2019-05-28T16:42:30.915Z,51.90
2019-05-28T16:47:25.349Z,51.80
2019-05-28T16:52:18.929Z,53.70
2019-05-28T16:57:12.568Z,50.90
2019-05-28T17:02:12.811Z,53.00
2019-05-28T17:07:16.278Z,53.40
2019-05-28T17:12:25.212Z,54.50
2019-05-28T17:17:18.755Z,53.70
2019-05-28T17:22:12.320Z,54.50
2019-05-28T17:27:06.047Z,53.80
2019-05-28T17:32:02.561Z,53.90
2019-05-28T17:36:56.208Z,55.10
2019-05-28T17:41:49.700Z,54.80
2019-05-28T17:46:43.452Z,55.50
2019-05-28T17:51:42.652Z,55.60
2019-05-28T17:56:41.085Z,55.50
2019-05-28T18:01:34.553Z,54.60
2019-05-28T18:06:28.040Z,56.20
2019-05-28T18:11:21.583Z,54.20
2019-05-28T18:16:27.194Z,55.60
2019-05-28T18:21:21.741Z,58.10
2019-05-28T18:26:15.289Z,57.80
2019-05-28T18:31:09.036Z,58.10
2019-05-28T18:36:02.629Z,59.30
2019-05-28T18:40:57.165Z,60.40
2019-05-28T18:45:51.006Z,60.80
2019-05-28T18:50:49.956Z,60.80
2019-05-28T18:55:43.569Z,61.60
2019-05-28T19:00:37.033Z,62.80
2019-05-28T19:05:30.517Z,64.60
2019-05-28T19:10:23.996Z,65.80
2019-05-28T19:15:18.022Z,66.80
2019-05-28T19:20:13.225Z,67.40
2019-05-28T19:25:10.514Z,68.60
2019-05-28T19:30:07.106Z,69.10
2019-05-28T19:35:01.739Z,69.30
2019-05-28T19:39:55.461Z,69.80
2019-05-28T19:44:48.944Z,70.60
2019-05-28T19:49:42.421Z,72.40
2019-05-28T19:54:37.156Z,72.50
2019-05-28T19:59:33.914Z,73.10
2019-05-28T20:04:27.256Z,74.10
2019-05-28T20:09:20.735Z,74.60
2019-05-28T20:14:17.168Z,74.60
2019-05-28T20:19:13.380Z,74.80
2019-05-28T20:24:09.673Z,75.50
2019-05-28T20:29:08.251Z,75.40
2019-05-28T20:33:59.070Z,78.00
2019-05-28T20:38:52.600Z,76.30
2019-05-28T20:43:48.356Z,78.10
2019-05-28T20:48:43.172Z,78.30
2019-05-28T20:53:36.661Z,78.90
2019-05-28T20:58:40.177Z,78.90
2019-05-28T21:03:30.509Z,78.90
2019-05-28T21:08:23.979Z,79.30
2019-05-28T21:13:19.505Z,79.90
2019-05-28T21:18:14.880Z,79.90
2019-05-28T21:23:08.432Z,80.10
2019-05-28T21:28:01.902Z,80.40
2019-05-28T21:32:56.689Z,80.90
2019-05-28T21:37:50.989Z,80.10
2019-05-28T21:42:58.484Z,80.30
2019-05-28T21:47:41.801Z,79.80
2019-05-28T21:52:35.262Z,79.80
2019-05-28T21:57:29.954Z,79.90
2019-05-28T22:02:23.461Z,80.70
2019-05-28T22:07:22.697Z,81.20
2019-05-28T22:12:16.133Z,81.20
2019-05-28T22:17:13.018Z,83.70
2019-05-28T22:22:10.713Z,81.70
2019-05-28T22:27:19.254Z,83.60
2019-05-28T22:32:13.067Z,83.10
2019-05-28T22:37:06.782Z,83.70
2019-05-28T22:42:01.568Z,85.80
2019-05-28T22:46:55.077Z,84.40
2019-05-28T22:51:48.520Z,83.50
2019-05-28T22:56:45.270Z,85.00
2019-05-28T23:01:38.946Z,85.20
2019-05-28T23:06:32.391Z,84.30
2019-05-28T23:11:27.761Z,85.40
2019-05-28T23:16:21.188Z,84.00
2019-05-28T23:21:14.620Z,86.90
2019-05-28T23:26:08.082Z,85.80
2019-05-28T23:31:01.815Z,87.10
2019-05-28T23:35:59.354Z,86.70
2019-05-28T23:40:55.253Z,85.10
2019-05-28T23:45:48.945Z,86.60
2019-05-28T23:50:44.304Z,85.40
2019-05-28T23:55:37.741Z,84.50
